2022年8月11日

时间 代码 天气 温度 能见度 天花板 METAR/SPECI
00:00
V
27 °C 10 km+ - 110° 110° 9 kt METAR LFCK 102200Z AUTO 11009KT CAVOK 27/14 Q1016

2022年8月10日

时间 代码 天气 温度 能见度 天花板 METAR/SPECI
23:30
V
27 °C 10 km+ - 120° 120° 12 kt METAR LFCK 102130Z AUTO 12012KT CAVOK 27/15 Q1016
23:00
V
27 °C 10 km+ - 120° 120° 12 kt METAR LFCK 102100Z AUTO 12012KT CAVOK 27/15 Q1016 NOSIG
22:30
V
27 °C 10 km+ - 110° 110° 13 kt METAR LFCK 102030Z AUTO 11013KT CAVOK 27/15 Q1016 NOSIG
22:00
V
28 °C 10 km+ - 120° 120° 13 kt METAR LFCK 102000Z AUTO 12013KT CAVOK 28/15 Q1016 NOSIG
21:30
V
29 °C 10 km+ - 120° 120° 12 kt METAR LFCK 101930Z AUTO 12012KT CAVOK 29/13 Q1016 NOSIG
21:00
V
30 °C 10 km+ - 130° 130° 11 kt METAR LFCK 101900Z AUTO 13011KT CAVOK 30/12 Q1016 NOSIG
20:30
V
31 °C 10 km+ - 130° 130° 11 kt METAR LFCK 101830Z AUTO 13011KT CAVOK 31/11 Q1015 NOSIG
20:00
V
32 °C 10 km+ - 140° 140° 12 kt METAR LFCK 101800Z AUTO 14012KT CAVOK 32/11 Q1015 NOSIG
19:30
V
33 °C 10 km+ - 150° 150° 13 kt METAR LFCK 101730Z AUTO 15013KT CAVOK 33/12 Q1015 NOSIG
19:00
V
34 °C 10 km+ - 140° 140° 14 kt METAR LFCK 101700Z AUTO 14014KT CAVOK 34/12 Q1015 NOSIG
18:30
V
35 °C 10 km+ - 150° 150° 12 kt METAR LFCK 101630Z AUTO 15012KT 120V180 CAVOK 35/13 Q1015 NOSIG
18:00
V
36 °C 10 km+ - 170° 170° 9 kt METAR LFCK 101600Z AUTO 17009KT 130V200 CAVOK 36/11 Q1015 NOSIG
17:30
V
37 °C 10 km+ - 130° 130° 10 kt METAR LFCK 101530Z AUTO 13010KT 100V170 CAVOK 37/10 Q1015 NOSIG
17:00
V
37 °C 10 km+ - 170° 170° 6 kt METAR LFCK 101500Z AUTO 17006KT 130V270 CAVOK 37/10 Q1015 NOSIG
16:30
V
37 °C 10 km+ - Var Var 5 kt METAR LFCK 101430Z AUTO VRB05KT CAVOK 37/10 Q1016 NOSIG
16:00
V
37 °C 10 km+ - 140° 140° 6 kt METAR LFCK 101400Z AUTO 14006KT 080V240 CAVOK 37/09 Q1016 NOSIG
15:30
V
36 °C 10 km+ - 180° 180° 7 kt METAR LFCK 101330Z AUTO 18007KT 120V250 CAVOK 36/10 Q1016 NOSIG
15:00
V
37 °C 10 km+ - 130° 130° 10 kt METAR LFCK 101300Z AUTO 13010KT 090V190 CAVOK 37/09 Q1016 NOSIG
14:30
V
37 °C 10 km+ - 140° 140° 8 kt METAR LFCK 101230Z AUTO 14008KT 100V170 CAVOK 37/10 Q1016 NOSIG
14:00
V
36 °C 10 km+ - 150° 150° 7 kt METAR LFCK 101200Z AUTO 15007KT 120V210 CAVOK 36/09 Q1017 NOSIG
13:30
V
36 °C 10 km+ - Var Var 7 kt METAR LFCK 101130Z AUTO VRB07KT CAVOK 36/09 Q1017 NOSIG
13:00
V
35 °C 10 km+ - Var Var 4 kt METAR LFCK 101100Z AUTO VRB04KT CAVOK 35/09 Q1017 NOSIG
12:30
V
35 °C 10 km+ - 180° 180° 4 kt METAR LFCK 101030Z AUTO 18004KT 100V240 CAVOK 35/09 Q1017 NOSIG
12:00
V
35 °C 10 km+ - Var Var 3 - 13 kt METAR LFCK 101000Z AUTO VRB03G13KT CAVOK 35/09 Q1018 NOSIG
11:30
V
34 °C 10 km+ - Var Var 3 kt METAR LFCK 100930Z AUTO VRB03KT CAVOK 34/10 Q1018 NOSIG
11:00
V
33 °C 10 km+ - 100° 100° 5 kt METAR LFCK 100900Z AUTO 10005KT 040V130 CAVOK 33/09 Q1018 NOSIG
10:30
V
30 °C 10 km+ - Var Var 3 kt METAR LFCK 100830Z AUTO VRB03KT CAVOK 30/10 Q1018 NOSIG
10:00
V
28 °C 10 km+ - 280° 280° 4 kt METAR LFCK 100800Z AUTO 28004KT CAVOK 28/11 Q1018 NOSIG
09:30
V
26 °C 10 km+ - Var Var 3 kt METAR LFCK 100730Z AUTO VRB03KT CAVOK 26/11 Q1018 NOSIG
09:00
V
24 °C 10 km+ - Var Var 2 kt METAR LFCK 100700Z AUTO VRB02KT CAVOK 24/10 Q1018 NOSIG
08:30
V
22 °C 10 km+ - Var 000° 0 kt METAR LFCK 100630Z AUTO 00000KT CAVOK 22/10 Q1018 NOSIG
08:00
V
20 °C 10 km+ - 280° 280° 4 kt METAR LFCK 100600Z AUTO 28004KT CAVOK 20/10 Q1018 NOSIG
07:30
V
20 °C 10 km+ - Var Var 2 kt METAR LFCK 100530Z AUTO VRB02KT CAVOK 20/09 Q1018
07:00
V
19 °C 10 km+ - 070° 070° 5 kt METAR LFCK 100500Z AUTO 07005KT CAVOK 19/09 Q1018
06:30
V
20 °C 10 km+ - 060° 060° 3 kt METAR LFCK 100430Z AUTO 06003KT CAVOK 20/09 Q1018
06:00
V
20 °C 10 km+ - 070° 070° 4 kt METAR LFCK 100400Z AUTO 07004KT 040V100 CAVOK 20/09 Q1018
05:30
V
21 °C 10 km+ - 070° 070° 4 kt METAR LFCK 100330Z AUTO 07004KT 020V120 CAVOK 21/09 Q1018
05:00
V
20 °C 10 km+ - 100° 100° 3 kt METAR LFCK 100300Z AUTO 10003KT 020V150 CAVOK 20/08 Q1018
04:30
V
20 °C 10 km+ - 110° 110° 3 kt METAR LFCK 100230Z AUTO 11003KT 070V140 CAVOK 20/08 Q1018
04:00
V
21 °C 10 km+ - 150° 150° 3 kt METAR LFCK 100200Z AUTO 15003KT CAVOK 21/09 Q1018
03:30
V
21 °C 10 km+ - 150° 150° 6 kt METAR LFCK 100130Z AUTO 15006KT CAVOK 21/09 Q1018
03:00
V
21 °C 10 km+ - 080° 080° 5 kt METAR LFCK 100100Z AUTO 08005KT CAVOK 21/09 Q1018
02:30
V
22 °C 10 km+ - 150° 150° 4 kt METAR LFCK 100030Z AUTO 15004KT CAVOK 22/09 Q1018
02:00
V
22 °C 10 km+ - 110° 110° 5 kt METAR LFCK 100000Z AUTO 11005KT CAVOK 22/08 Q1018
01:30
V
22 °C 10 km+ - 120° 120° 5 kt METAR LFCK 092330Z AUTO 12005KT CAVOK 22/09 Q1018
01:00
V
21 °C 10 km+ - 130° 130° 5 kt METAR LFCK 092300Z AUTO 13005KT CAVOK 21/09 Q1018
00:30
V
23 °C 10 km+ - 140° 140° 7 kt METAR LFCK 092230Z AUTO 14007KT CAVOK 23/10 Q1018
00:00
V
23 °C 10 km+ - 130° 130° 4 kt METAR LFCK 092200Z AUTO 13004KT 090V150 CAVOK 23/10 Q1018

2022年8月9日

时间 代码 天气 温度 能见度 天花板 METAR/SPECI
23:30
V
24 °C 10 km+ - 120° 120° 5 kt METAR LFCK 092130Z AUTO 12005KT CAVOK 24/09 Q1018
23:00
V
24 °C 10 km+ - 140° 140° 6 kt METAR LFCK 092100Z AUTO 14006KT CAVOK 24/09 Q1018 NOSIG
22:30
V
26 °C 10 km+ - 140° 140° 4 kt METAR LFCK 092030Z AUTO 14004KT CAVOK 26/08 Q1018 NOSIG
22:00
V
26 °C 10 km+ - 040° 040° 2 kt METAR LFCK 092000Z AUTO 04002KT CAVOK 26/09 Q1018 NOSIG
21:30
V
30 °C 10 km+ - 210° 210° 5 kt METAR LFCK 091930Z AUTO 21005KT CAVOK 30/08 Q1018 NOSIG
21:00
V
32 °C 10 km+ - 260° 260° 4 kt METAR LFCK 091900Z AUTO 26004KT CAVOK 32/07 Q1018 NOSIG
20:30
V
34 °C 10 km+ - 280° 280° 5 kt METAR LFCK 091830Z AUTO 28005KT CAVOK 34/07 Q1017 NOSIG
20:00
V
35 °C 10 km+ - 300° 300° 8 kt METAR LFCK 091800Z AUTO 30008KT CAVOK 35/07 Q1017 NOSIG
19:30
V
35 °C 10 km+ - 280° 280° 7 kt METAR LFCK 091730Z AUTO 28007KT 250V310 CAVOK 35/06 Q1017 NOSIG
19:00
V
35 °C 10 km+ - 280° 280° 6 kt METAR LFCK 091700Z AUTO 28006KT 240V320 CAVOK 35/06 Q1017 NOSIG
18:30
V
36 °C 10 km+ - 280° 280° 4 kt METAR LFCK 091630Z AUTO 28004KT 240V330 CAVOK 36/07 Q1017 NOSIG
18:00
V
35 °C 10 km+ - 290° 290° 7 kt METAR LFCK 091600Z AUTO 29007KT 250V330 CAVOK 35/07 Q1017 NOSIG
17:30
V
36 °C 10 km+ - Var Var 3 kt METAR LFCK 091530Z AUTO VRB03KT CAVOK 36/04 Q1018 NOSIG
17:00
V
36 °C 10 km+ - 250° 250° 8 kt METAR LFCK 091500Z AUTO 25008KT 210V300 CAVOK 36/05 Q1018 NOSIG
16:30
V
35 °C 10 km+ - 340° 340° 6 kt METAR LFCK 091430Z AUTO 34006KT 280V040 CAVOK 35/06 Q1018 NOSIG
16:00
V
35 °C 10 km+ - 250° 250° 6 kt METAR LFCK 091400Z AUTO 25006KT 210V300 CAVOK 35/06 Q1018 NOSIG
15:30
V
35 °C 10 km+ - 210° 210° 3 kt METAR LFCK 091330Z AUTO 21003KT 130V290 CAVOK 35/07 Q1018 NOSIG
15:00
V
34 °C 10 km+ - 310° 310° 5 kt METAR LFCK 091300Z AUTO 31005KT 220V350 CAVOK 34/06 Q1018 NOSIG
14:30
V
34 °C 10 km+ - 320° 320° 7 kt METAR LFCK 091230Z AUTO 32007KT 250V010 CAVOK 34/07 Q1019 NOSIG
14:00
V
33 °C 10 km+ - 300° 300° 5 kt METAR LFCK 091200Z AUTO 30005KT 230V360 CAVOK 33/08 Q1019 NOSIG
13:30
V
33 °C 10 km+ - 300° 300° 5 kt METAR LFCK 091130Z AUTO 30005KT 240V340 CAVOK 33/08 Q1019 NOSIG
13:00
V
32 °C 10 km+ - 300° 300° 5 kt METAR LFCK 091100Z AUTO 30005KT 250V350 CAVOK 32/09 Q1020 NOSIG
12:30
V
31 °C 10 km+ - 320° 320° 4 kt METAR LFCK 091030Z AUTO 32004KT 250V010 CAVOK 31/10 Q1020 NOSIG
12:00
V
29 °C 10 km+ - 280° 280° 5 kt METAR LFCK 091000Z AUTO 28005KT 240V330 CAVOK 29/12 Q1020 NOSIG
11:30
V
28 °C 10 km+ - 260° 260° 4 kt METAR LFCK 090930Z AUTO 26004KT 190V300 CAVOK 28/13 Q1020 NOSIG
11:00
V
27 °C 10 km+ - Var Var 2 kt METAR LFCK 090900Z AUTO VRB02KT CAVOK 27/11 Q1020 NOSIG
10:30
V
26 °C 10 km+ - 290° 290° 3 kt METAR LFCK 090830Z AUTO 29003KT 220V360 CAVOK 26/12 Q1021 NOSIG
10:00
V
25 °C 10 km+ - 300° 300° 5 kt METAR LFCK 090800Z AUTO 30005KT 270V340 CAVOK 25/11 Q1021 NOSIG
09:30
V
23 °C 10 km+ - 310° 310° 3 kt METAR LFCK 090730Z AUTO 31003KT 260V350 CAVOK 23/09 Q1021 NOSIG
09:00
V
22 °C 10 km+ - Var Var 1 kt METAR LFCK 090700Z AUTO VRB01KT CAVOK 22/10 Q1020 NOSIG
08:30
V
21 °C 10 km+ - Var 000° 0 kt METAR LFCK 090630Z AUTO 00000KT CAVOK 21/10 Q1020 NOSIG
08:00
V
20 °C 10 km+ - Var Var 2 kt METAR LFCK 090600Z AUTO VRB02KT CAVOK 20/09 Q1020 NOSIG
07:30
V
18 °C 10 km+ - Var Var 2 kt METAR LFCK 090530Z AUTO VRB02KT CAVOK 18/09 Q1020
07:00
V
16 °C 10 km+ - 070° 070° 2 kt METAR LFCK 090500Z AUTO 07002KT CAVOK 16/08 Q1019
06:30
V
18 °C 10 km+ - Var Var 2 kt METAR LFCK 090430Z AUTO VRB02KT CAVOK 18/08 Q1019
06:00
V
19 °C 10 km+ - 120° 120° 5 kt METAR LFCK 090400Z AUTO 12005KT CAVOK 19/09 Q1019
05:30
V
18 °C 10 km+ - 120° 120° 5 kt METAR LFCK 090330Z AUTO 12005KT CAVOK 18/08 Q1019
05:00
V
19 °C 10 km+ - 150° 150° 6 kt METAR LFCK 090300Z AUTO 15006KT CAVOK 19/08 Q1019
04:30
V
19 °C 10 km+ - 150° 150° 7 kt METAR LFCK 090230Z AUTO 15007KT CAVOK 19/08 Q1018
04:00
V
20 °C 10 km+ - 150° 150° 4 kt METAR LFCK 090200Z AUTO 15004KT CAVOK 20/07 Q1018
03:30
V
20 °C 10 km+ - Var Var 2 kt METAR LFCK 090130Z AUTO VRB02KT CAVOK 20/07 Q1018
03:00
V
19 °C 10 km+ - 140° 140° 6 kt METAR LFCK 090100Z AUTO 14006KT CAVOK 19/07 Q1018
02:30
V
21 °C 10 km+ - 150° 150° 5 kt METAR LFCK 090030Z AUTO 15005KT CAVOK 21/07 Q1018
02:00
V
21 °C 10 km+ - 110° 110° 4 kt METAR LFCK 090000Z AUTO 11004KT CAVOK 21/07 Q1018
01:30
V
21 °C 10 km+ - 130° 130° 5 kt METAR LFCK 082330Z AUTO 13005KT CAVOK 21/06 Q1018
01:00
V
20 °C 10 km+ - 130° 130° 4 kt METAR LFCK 082300Z AUTO 13004KT CAVOK 20/06 Q1018
00:30
V
22 °C 10 km+ - 150° 150° 6 kt METAR LFCK 082230Z AUTO 15006KT CAVOK 22/06 Q1018
00:00
V
22 °C 10 km+ - 150° 150° 6 kt METAR LFCK 082200Z AUTO 15006KT CAVOK 22/06 Q1018

2022年8月8日

时间 代码 天气 温度 能见度 天花板 METAR/SPECI
23:30
V
23 °C 10 km+ - 150° 150° 7 kt METAR LFCK 082130Z AUTO 15007KT CAVOK 23/06 Q1018
23:00
V
24 °C 10 km+ - 140° 140° 6 kt METAR LFCK 082100Z AUTO 14006KT CAVOK 24/06 Q1018 NOSIG
22:30
V
24 °C 10 km+ - 060° 060° 3 kt METAR LFCK 082030Z AUTO 06003KT CAVOK 24/06 Q1018 NOSIG
22:00
V
26 °C 10 km+ - Var Var 1 kt METAR LFCK 082000Z AUTO VRB01KT CAVOK 26/06 Q1018 NOSIG
21:30
V
28 °C 10 km+ - 240° 240° 5 kt METAR LFCK 081930Z AUTO 24005KT CAVOK 28/05 Q1017 NOSIG
21:00
V
31 °C 10 km+ - 250° 250° 6 kt METAR LFCK 081900Z AUTO 25006KT CAVOK 31/05 Q1017 NOSIG
20:30
V
33 °C 10 km+ - 260° 260° 7 kt METAR LFCK 081830Z AUTO 26007KT CAVOK 33/04 Q1017 NOSIG
20:00
V
34 °C 10 km+ - 280° 280° 7 kt METAR LFCK 081800Z AUTO 28007KT CAVOK 34/03 Q1016 NOSIG
19:30
V
35 °C 10 km+ - 280° 280° 7 kt METAR LFCK 081730Z AUTO 28007KT 220V310 CAVOK 35/01 Q1016 NOSIG
19:00
V
35 °C 10 km+ - 270° 270° 8 kt METAR LFCK 081700Z AUTO 27008KT 240V310 CAVOK 35/M01 Q1016 NOSIG
18:30
V
35 °C 10 km+ - 310° 310° 5 kt METAR LFCK 081630Z AUTO 31005KT 190V360 CAVOK 35/M00 Q1016 NOSIG
18:00
V
35 °C 10 km+ - 350° 350° 8 kt METAR LFCK 081600Z AUTO 35008KT 320V020 CAVOK 35/M01 Q1016 NOSIG
17:30
V
35 °C 10 km+ - 300° 300° 7 kt METAR LFCK 081530Z AUTO 30007KT 260V010 CAVOK 35/04 Q1016 NOSIG
17:00
V
35 °C 10 km+ - 340° 340° 9 kt METAR LFCK 081500Z AUTO 34009KT 310V020 CAVOK 35/03 Q1016 NOSIG
较旧的数据

我们和第三方通过cookies跟踪您在我们网站上的上网行为。如果您继续,我们认为您同意我们的cookie政策。 了解更多